sensor_id;sensor_type;location;lat;lon;timestamp;P1;durP1;ratioP1;P2;durP2;ratioP2
2001;SDS011;1003;48.002;7.788;2022-08-27T00:00:41;7.60;;;5.80;;
2001;SDS011;1003;48.002;7.788;2022-08-27T00:03:09;8.23;;;5.73;;
2001;SDS011;1003;48.002;7.788;2022-08-27T00:05:37;8.27;;;5.93;;
2001;SDS011;1003;48.002;7.788;2022-08-27T00:08:04;7.23;;;5.40;;
2001;SDS011;1003;48.002;7.788;2022-08-27T00:10:36;9.17;;;6.80;;
2001;SDS011;1003;48.002;7.788;2022-08-27T00:13:05;10.43;;;7.60;;
2001;SDS011;1003;48.002;7.788;2022-08-27T00:15:32;8.63;;;6.67;;
2001;SDS011;1003;48.002;7.788;2022-08-27T00:17:59;7.73;;;6.57;;
2001;SDS011;1003;48.002;7.788;2022-08-27T00:20:26;8.37;;;6.97;;
2001;SDS011;1003;48.002;7.788;2022-08-27T00:22:53;10.60;;;7.43;;
2001;SDS011;1003;48.002;7.788;2022-08-27T00:25:21;9.57;;;7.27;;
2001;SDS011;1003;48.002;7.788;2022-08-27T00:27:49;8.70;;;6.67;;
2001;SDS011;1003;48.002;7.788;2022-08-27T00:30:18;8.87;;;6.37;;
2001;SDS011;1003;48.002;7.788;2022-08-27T00:32:48;8.60;;;6.23;;
2001;SDS011;1003;48.002;7.788;2022-08-27T00:35:15;7.77;;;6.37;;
2001;SDS011;1003;48.002;7.788;2022-08-27T00:37:43;12.40;;;7.40;;
2001;SDS011;1003;48.002;7.788;2022-08-27T00:40:13;8.20;;;6.40;;
2001;SDS011;1003;48.002;7.788;2022-08-27T00:42:43;8.37;;;6.03;;
2001;SDS011;1003;48.002;7.788;2022-08-27T00:45:12;7.93;;;6.37;;
2001;SDS011;1003;48.002;7.788;2022-08-27T00:47:43;8.70;;;6.13;;
2001;SDS011;1003;48.002;7.788;2022-08-27T00:50:19;7.73;;;6.10;;
2001;SDS011;1003;48.002;7.788;2022-08-27T00:52:56;7.37;;;6.00;;
2001;SDS011;1003;48.002;7.788;2022-08-27T00:55:29;9.60;;;7.50;;
2001;SDS011;1003;48.002;7.788;2022-08-27T00:58:03;8.63;;;6.97;;
2001;SDS011;1003;48.002;7.788;2022-08-27T01:00:39;8.63;;;6.57;;
2001;SDS011;1003;48.002;7.788;2022-08-27T01:03:07;8.00;;;6.77;;
2001;SDS011;1003;48.002;7.788;2022-08-27T01:05:34;9.20;;;6.77;;
2001;SDS011;1003;48.002;7.788;2022-08-27T01:08:06;8.43;;;7.00;;
2001;SDS011;1003;48.002;7.788;2022-08-27T01:10:38;8.50;;;6.83;;
2001;SDS011;1003;48.002;7.788;2022-08-27T01:13:07;9.10;;;7.83;;
2001;SDS011;1003;48.002;7.788;2022-08-27T01:15:37;11.03;;;8.43;;
2001;SDS011;1003;48.002;7.788;2022-08-27T01:18:07;8.50;;;7.30;;
2001;SDS011;1003;48.002;7.788;2022-08-27T01:20:39;9.07;;;7.37;;
2001;SDS011;1003;48.002;7.788;2022-08-27T01:23:16;8.77;;;7.43;;
2001;SDS011;1003;48.002;7.788;2022-08-27T01:25:51;9.53;;;7.63;;
2001;SDS011;1003;48.002;7.788;2022-08-27T01:28:19;13.30;;;9.40;;
2001;SDS011;1003;48.002;7.788;2022-08-27T01:30:47;12.23;;;8.90;;
2001;SDS011;1003;48.002;7.788;2022-08-27T01:33:16;16.70;;;9.43;;
2001;SDS011;1003;48.002;7.788;2022-08-27T01:35:47;14.97;;;9.40;;
2001;SDS011;1003;48.002;7.788;2022-08-27T01:38:16;10.13;;;8.03;;
2001;SDS011;1003;48.002;7.788;2022-08-27T01:40:45;9.70;;;7.97;;
2001;SDS011;1003;48.002;7.788;2022-08-27T01:43:14;8.70;;;7.53;;
2001;SDS011;1003;48.002;7.788;2022-08-27T01:45:44;13.27;;;9.90;;
2001;SDS011;1003;48.002;7.788;2022-08-27T01:48:14;10.00;;;8.27;;
2001;SDS011;1003;48.002;7.788;2022-08-27T01:50:41;12.30;;;8.60;;
2001;SDS011;1003;48.002;7.788;2022-08-27T01:53:10;11.03;;;8.70;;
2001;SDS011;1003;48.002;7.788;2022-08-27T01:55:41;10.57;;;8.53;;
2001;SDS011;1003;48.002;7.788;2022-08-27T01:58:11;10.07;;;8.67;;
2001;SDS011;1003;48.002;7.788;2022-08-27T02:00:41;10.83;;;8.50;;
2001;SDS011;1003;48.002;7.788;2022-08-27T02:03:13;12.83;;;9.13;;
2001;SDS011;1003;48.002;7.788;2022-08-27T02:05:42;14.60;;;9.93;;
2001;SDS011;1003;48.002;7.788;2022-08-27T02:08:10;15.50;;;9.40;;
2001;SDS011;1003;48.002;7.788;2022-08-27T02:10:40;12.37;;;9.73;;
2001;SDS011;1003;48.002;7.788;2022-08-27T02:13:09;11.47;;;9.10;;
2001;SDS011;1003;48.002;7.788;2022-08-27T02:15:39;13.23;;;9.73;;
2001;SDS011;1003;48.002;7.788;2022-08-27T02:18:09;12.10;;;9.30;;
2001;SDS011;1003;48.002;7.788;2022-08-27T02:20:37;10.23;;;8.43;;
2001;SDS011;1003;48.002;7.788;2022-08-27T02:23:05;10.67;;;8.07;;
2001;SDS011;1003;48.002;7.788;2022-08-27T02:25:33;11.73;;;9.23;;
2001;SDS011;1003;48.002;7.788;2022-08-27T02:28:00;12.23;;;9.43;;
2001;SDS011;1003;48.002;7.788;2022-08-27T02:30:30;13.97;;;10.40;;
2001;SDS011;1003;48.002;7.788;2022-08-27T02:33:00;14.30;;;9.83;;
2001;SDS011;1003;48.002;7.788;2022-08-27T02:35:30;14.23;;;9.90;;
2001;SDS011;1003;48.002;7.788;2022-08-27T02:38:02;13.93;;;9.83;;
2001;SDS011;1003;48.002;7.788;2022-08-27T02:40:30;13.27;;;9.93;;
2001;SDS011;1003;48.002;7.788;2022-08-27T02:42:57;13.17;;;9.27;;
2001;SDS011;1003;48.002;7.788;2022-08-27T02:45:24;10.23;;;8.73;;
2001;SDS011;1003;48.002;7.788;2022-08-27T02:47:52;15.73;;;10.77;;
2001;SDS011;1003;48.002;7.788;2022-08-27T02:50:20;15.17;;;10.47;;
2001;SDS011;1003;48.002;7.788;2022-08-27T02:52:47;13.23;;;9.80;;
2001;SDS011;1003;48.002;7.788;2022-08-27T02:55:14;14.60;;;9.53;;
2001;SDS011;1003;48.002;7.788;2022-08-27T02:57:41;12.73;;;9.63;;
2001;SDS011;1003;48.002;7.788;2022-08-27T03:00:10;14.40;;;9.30;;
2001;SDS011;1003;48.002;7.788;2022-08-27T03:02:40;15.60;;;10.00;;
2001;SDS011;1003;48.002;7.788;2022-08-27T03:05:07;13.43;;;9.07;;
2001;SDS011;1003;48.002;7.788;2022-08-27T03:07:39;12.87;;;8.87;;
2001;SDS011;1003;48.002;7.788;2022-08-27T03:10:08;9.77;;;7.63;;
2001;SDS011;1003;48.002;7.788;2022-08-27T03:12:37;10.43;;;7.87;;
2001;SDS011;1003;48.002;7.788;2022-08-27T03:15:05;11.47;;;7.20;;
2001;SDS011;1003;48.002;7.788;2022-08-27T03:17:36;9.33;;;7.30;;
2001;SDS011;1003;48.002;7.788;2022-08-27T03:20:20;10.30;;;8.13;;
2001;SDS011;1003;48.002;7.788;2022-08-27T03:22:51;11.93;;;7.23;;
2001;SDS011;1003;48.002;7.788;2022-08-27T03:25:19;12.50;;;8.60;;
2001;SDS011;1003;48.002;7.788;2022-08-27T03:27:47;10.03;;;8.03;;
2001;SDS011;1003;48.002;7.788;2022-08-27T03:30:15;11.53;;;8.43;;
2001;SDS011;1003;48.002;7.788;2022-08-27T03:32:45;9.73;;;8.20;;
2001;SDS011;1003;48.002;7.788;2022-08-27T03:35:12;11.13;;;8.60;;
2001;SDS011;1003;48.002;7.788;2022-08-27T03:37:40;12.57;;;9.07;;
2001;SDS011;1003;48.002;7.788;2022-08-27T03:40:09;14.07;;;9.80;;
2001;SDS011;1003;48.002;7.788;2022-08-27T03:42:38;14.63;;;9.90;;
2001;SDS011;1003;48.002;7.788;2022-08-27T03:45:06;13.33;;;9.00;;
2001;SDS011;1003;48.002;7.788;2022-08-27T03:47:35;12.77;;;9.10;;
2001;SDS011;1003;48.002;7.788;2022-08-27T03:50:04;11.00;;;8.10;;
2001;SDS011;1003;48.002;7.788;2022-08-27T03:52:33;11.87;;;9.23;;
2001;SDS011;1003;48.002;7.788;2022-08-27T03:55:02;14.33;;;9.30;;
2001;SDS011;1003;48.002;7.788;2022-08-27T03:57:32;16.00;;;9.77;;
2001;SDS011;1003;48.002;7.788;2022-08-27T03:59:59;14.33;;;10.00;;
2001;SDS011;1003;48.002;7.788;2022-08-27T04:02:27;15.50;;;9.33;;
2001;SDS011;1003;48.002;7.788;2022-08-27T04:04:54;10.93;;;8.93;;
2001;SDS011;1003;48.002;7.788;2022-08-27T04:07:22;15.70;;;10.30;;
2001;SDS011;1003;48.002;7.788;2022-08-27T04:09:49;15.27;;;9.77;;
2001;SDS011;1003;48.002;7.788;2022-08-27T04:12:16;17.03;;;10.73;;
2001;SDS011;1003;48.002;7.788;2022-08-27T04:14:44;14.20;;;10.33;;
2001;SDS011;1003;48.002;7.788;2022-08-27T04:17:11;13.17;;;10.07;;
2001;SDS011;1003;48.002;7.788;2022-08-27T04:19:38;14.93;;;10.50;;
2001;SDS011;1003;48.002;7.788;2022-08-27T04:22:05;16.20;;;11.10;;
2001;SDS011;1003;48.002;7.788;2022-08-27T04:24:33;16.53;;;11.47;;
2001;SDS011;1003;48.002;7.788;2022-08-27T04:27:03;16.40;;;11.00;;
2001;SDS011;1003;48.002;7.788;2022-08-27T04:29:31;17.20;;;10.53;;
2001;SDS011;1003;48.002;7.788;2022-08-27T04:32:01;13.07;;;9.80;;
2001;SDS011;1003;48.002;7.788;2022-08-27T04:34:29;14.93;;;9.73;;
2001;SDS011;1003;48.002;7.788;2022-08-27T04:36:57;11.50;;;8.83;;
2001;SDS011;1003;48.002;7.788;2022-08-27T04:39:25;15.47;;;10.63;;
2001;SDS011;1003;48.002;7.788;2022-08-27T04:41:57;17.83;;;11.93;;
2001;SDS011;1003;48.002;7.788;2022-08-27T04:44:27;15.90;;;11.37;;
2001;SDS011;1003;48.002;7.788;2022-08-27T04:46:57;15.07;;;10.97;;
2001;SDS011;1003;48.002;7.788;2022-08-27T04:49:28;14.60;;;10.80;;
2001;SDS011;1003;48.002;7.788;2022-08-27T04:51:57;14.57;;;10.70;;
2001;SDS011;1003;48.002;7.788;2022-08-27T04:54:25;17.43;;;12.20;;
2001;SDS011;1003;48.002;7.788;2022-08-27T04:56:52;18.13;;;12.20;;
2001;SDS011;1003;48.002;7.788;2022-08-27T04:59:19;17.80;;;12.33;;
2001;SDS011;1003;48.002;7.788;2022-08-27T05:01:46;19.13;;;12.63;;
2001;SDS011;1003;48.002;7.788;2022-08-27T05:04:15;20.97;;;13.63;;
2001;SDS011;1003;48.002;7.788;2022-08-27T05:06:44;16.67;;;12.83;;
2001;SDS011;1003;48.002;7.788;2022-08-27T05:09:13;18.83;;;13.40;;
2001;SDS011;1003;48.002;7.788;2022-08-27T05:11:42;16.13;;;11.83;;
2001;SDS011;1003;48.002;7.788;2022-08-27T05:14:11;14.97;;;10.70;;
2001;SDS011;1003;48.002;7.788;2022-08-27T05:16:41;18.57;;;12.27;;
2001;SDS011;1003;48.002;7.788;2022-08-27T05:19:09;13.57;;;10.60;;
2001;SDS011;1003;48.002;7.788;2022-08-27T05:21:42;19.43;;;12.90;;
2001;SDS011;1003;48.002;7.788;2022-08-27T05:24:12;19.87;;;12.67;;
2001;SDS011;1003;48.002;7.788;2022-08-27T05:26:41;18.33;;;12.50;;
2001;SDS011;1003;48.002;7.788;2022-08-27T05:29:09;15.87;;;9.80;;
2001;SDS011;1003;48.002;7.788;2022-08-27T05:31:38;15.80;;;11.67;;
2001;SDS011;1003;48.002;7.788;2022-08-27T05:34:06;14.90;;;11.23;;
2001;SDS011;1003;48.002;7.788;2022-08-27T05:36:33;12.47;;;9.60;;
2001;SDS011;1003;48.002;7.788;2022-08-27T05:39:03;15.47;;;10.97;;
2001;SDS011;1003;48.002;7.788;2022-08-27T05:41:31;13.47;;;10.27;;
2001;SDS011;1003;48.002;7.788;2022-08-27T05:44:01;18.93;;;12.67;;
2001;SDS011;1003;48.002;7.788;2022-08-27T05:46:31;14.93;;;10.87;;
2001;SDS011;1003;48.002;7.788;2022-08-27T05:49:00;16.27;;;11.77;;
2001;SDS011;1003;48.002;7.788;2022-08-27T05:51:28;15.97;;;11.57;;
2001;SDS011;1003;48.002;7.788;2022-08-27T05:53:59;19.40;;;12.23;;
2001;SDS011;1003;48.002;7.788;2022-08-27T05:56:31;12.83;;;9.50;;
2001;SDS011;1003;48.002;7.788;2022-08-27T05:59:02;18.07;;;11.60;;
2001;SDS011;1003;48.002;7.788;2022-08-27T06:01:45;14.10;;;10.67;;
2001;SDS011;1003;48.002;7.788;2022-08-27T06:04:14;13.30;;;9.67;;
2001;SDS011;1003;48.002;7.788;2022-08-27T06:06:44;12.27;;;9.87;;
2001;SDS011;1003;48.002;7.788;2022-08-27T06:09:16;15.03;;;9.70;;
2001;SDS011;1003;48.002;7.788;2022-08-27T06:11:46;15.93;;;11.93;;
2001;SDS011;1003;48.002;7.788;2022-08-27T06:14:14;15.20;;;11.40;;
2001;SDS011;1003;48.002;7.788;2022-08-27T06:16:41;14.63;;;10.57;;
2001;SDS011;1003;48.002;7.788;2022-08-27T06:19:08;14.70;;;10.40;;
2001;SDS011;1003;48.002;7.788;2022-08-27T06:21:36;14.00;;;10.77;;
2001;SDS011;1003;48.002;7.788;2022-08-27T06:24:04;11.57;;;8.77;;
2001;SDS011;1003;48.002;7.788;2022-08-27T06:26:33;11.77;;;9.37;;
2001;SDS011;1003;48.002;7.788;2022-08-27T06:29:01;15.63;;;10.73;;
2001;SDS011;1003;48.002;7.788;2022-08-27T06:31:29;17.10;;;12.67;;
2001;SDS011;1003;48.002;7.788;2022-08-27T06:33:58;10.60;;;8.80;;
2001;SDS011;1003;48.002;7.788;2022-08-27T06:36:28;12.10;;;9.87;;
2001;SDS011;1003;48.002;7.788;2022-08-27T06:38:56;15.33;;;11.57;;
2001;SDS011;1003;48.002;7.788;2022-08-27T06:41:25;16.77;;;11.97;;
2001;SDS011;1003;48.002;7.788;2022-08-27T06:43:55;12.50;;;9.77;;
2001;SDS011;1003;48.002;7.788;2022-08-27T06:46:23;11.80;;;8.97;;
2001;SDS011;1003;48.002;7.788;2022-08-27T06:48:54;10.73;;;8.57;;
2001;SDS011;1003;48.002;7.788;2022-08-27T06:51:25;11.67;;;9.60;;
2001;SDS011;1003;48.002;7.788;2022-08-27T06:53:55;16.30;;;11.77;;
2001;SDS011;1003;48.002;7.788;2022-08-27T06:56:24;16.00;;;11.93;;
2001;SDS011;1003;48.002;7.788;2022-08-27T06:58:53;13.60;;;10.57;;
2001;SDS011;1003;48.002;7.788;2022-08-27T07:01:26;11.57;;;10.00;;
2001;SDS011;1003;48.002;7.788;2022-08-27T07:03:56;14.40;;;10.40;;
2001;SDS011;1003;48.002;7.788;2022-08-27T07:06:28;11.83;;;9.77;;
2001;SDS011;1003;48.002;7.788;2022-08-27T07:08:56;15.53;;;10.77;;
2001;SDS011;1003;48.002;7.788;2022-08-27T07:11:25;14.13;;;11.30;;
2001;SDS011;1003;48.002;7.788;2022-08-27T07:13:53;13.07;;;9.83;;
2001;SDS011;1003;48.002;7.788;2022-08-27T07:16:23;15.93;;;12.10;;
2001;SDS011;1003;48.002;7.788;2022-08-27T07:18:54;15.97;;;12.30;;
2001;SDS011;1003;48.002;7.788;2022-08-27T07:21:24;14.67;;;11.20;;
2001;SDS011;1003;48.002;7.788;2022-08-27T07:23:52;17.93;;;11.83;;
2001;SDS011;1003;48.002;7.788;2022-08-27T07:26:23;14.10;;;10.37;;
2001;SDS011;1003;48.002;7.788;2022-08-27T07:28:51;14.93;;;11.97;;
2001;SDS011;1003;48.002;7.788;2022-08-27T07:31:20;15.77;;;11.80;;
2001;SDS011;1003;48.002;7.788;2022-08-27T07:33:49;14.57;;;11.10;;
2001;SDS011;1003;48.002;7.788;2022-08-27T07:36:17;20.37;;;13.17;;
2001;SDS011;1003;48.002;7.788;2022-08-27T07:38:44;17.63;;;12.97;;
2001;SDS011;1003;48.002;7.788;2022-08-27T07:41:12;20.50;;;13.03;;
2001;SDS011;1003;48.002;7.788;2022-08-27T07:43:39;12.63;;;9.77;;
2001;SDS011;1003;48.002;7.788;2022-08-27T07:46:25;16.80;;;11.83;;
2001;SDS011;1003;48.002;7.788;2022-08-27T07:48:53;16.40;;;11.23;;
2001;SDS011;1003;48.002;7.788;2022-08-27T07:51:22;17.13;;;11.97;;
2001;SDS011;1003;48.002;7.788;2022-08-27T07:53:52;15.13;;;11.47;;
2001;SDS011;1003;48.002;7.788;2022-08-27T07:56:19;16.67;;;12.20;;
2001;SDS011;1003;48.002;7.788;2022-08-27T07:58:47;16.83;;;11.70;;
2001;SDS011;1003;48.002;7.788;2022-08-27T08:01:15;18.07;;;13.40;;
2001;SDS011;1003;48.002;7.788;2022-08-27T08:03:44;17.63;;;12.90;;
2001;SDS011;1003;48.002;7.788;2022-08-27T08:06:12;14.63;;;11.23;;
2001;SDS011;1003;48.002;7.788;2022-08-27T08:08:40;16.73;;;12.23;;
2001;SDS011;1003;48.002;7.788;2022-08-27T08:11:09;15.83;;;11.37;;
2001;SDS011;1003;48.002;7.788;2022-08-27T08:13:39;17.40;;;10.93;;
2001;SDS011;1003;48.002;7.788;2022-08-27T08:16:08;11.30;;;9.10;;
2001;SDS011;1003;48.002;7.788;2022-08-27T08:18:36;18.57;;;13.40;;
2001;SDS011;1003;48.002;7.788;2022-08-27T08:21:07;15.60;;;11.73;;
2001;SDS011;1003;48.002;7.788;2022-08-27T08:23:37;16.17;;;12.10;;
2001;SDS011;1003;48.002;7.788;2022-08-27T08:26:09;14.90;;;10.73;;
2001;SDS011;1003;48.002;7.788;2022-08-27T08:28:37;15.90;;;12.57;;
2001;SDS011;1003;48.002;7.788;2022-08-27T08:31:05;17.87;;;11.87;;
2001;SDS011;1003;48.002;7.788;2022-08-27T08:33:33;15.50;;;11.37;;
2001;SDS011;1003;48.002;7.788;2022-08-27T08:36:02;16.63;;;12.60;;
2001;SDS011;1003;48.002;7.788;2022-08-27T08:38:34;15.77;;;12.50;;
2001;SDS011;1003;48.002;7.788;2022-08-27T08:41:02;16.60;;;11.73;;
2001;SDS011;1003;48.002;7.788;2022-08-27T08:43:32;17.23;;;11.53;;
2001;SDS011;1003;48.002;7.788;2022-08-27T08:46:07;18.43;;;12.00;;
2001;SDS011;1003;48.002;7.788;2022-08-27T08:48:43;16.00;;;12.43;;
2001;SDS011;1003;48.002;7.788;2022-08-27T08:51:20;14.83;;;10.70;;
2001;SDS011;1003;48.002;7.788;2022-08-27T08:53:54;13.50;;;11.70;;
2001;SDS011;1003;48.002;7.788;2022-08-27T08:56:29;15.80;;;12.43;;
2001;SDS011;1003;48.002;7.788;2022-08-27T08:59:08;15.43;;;11.67;;
2001;SDS011;1003;48.002;7.788;2022-08-27T09:01:43;16.30;;;12.65;;
2001;SDS011;1003;48.002;7.788;2022-08-27T09:04:10;17.33;;;12.57;;
2001;SDS011;1003;48.002;7.788;2022-08-27T09:06:40;16.40;;;11.60;;
2001;SDS011;1003;48.002;7.788;2022-08-27T09:09:18;17.33;;;12.13;;
2001;SDS011;1003;48.002;7.788;2022-08-27T09:11:50;19.13;;;12.53;;
2001;SDS011;1003;48.002;7.788;2022-08-27T09:14:27;17.17;;;12.67;;
2001;SDS011;1003;48.002;7.788;2022-08-27T09:17:02;14.13;;;10.60;;
2001;SDS011;1003;48.002;7.788;2022-08-27T09:19:30;14.73;;;11.27;;
2001;SDS011;1003;48.002;7.788;2022-08-27T09:22:00;9.53;;;8.53;;
2001;SDS011;1003;48.002;7.788;2022-08-27T09:24:42;15.33;;;10.73;;
2001;SDS011;1003;48.002;7.788;2022-08-27T09:27:20;10.57;;;8.47;;
2001;SDS011;1003;48.002;7.788;2022-08-27T09:29:49;12.07;;;8.77;;
2001;SDS011;1003;48.002;7.788;2022-08-27T09:32:21;10.87;;;8.20;;
2001;SDS011;1003;48.002;7.788;2022-08-27T09:34:50;10.13;;;8.00;;
2001;SDS011;1003;48.002;7.788;2022-08-27T09:37:24;10.33;;;8.67;;
2001;SDS011;1003;48.002;7.788;2022-08-27T09:39:57;11.17;;;7.77;;
2001;SDS011;1003;48.002;7.788;2022-08-27T09:42:33;11.73;;;7.70;;
2001;SDS011;1003;48.002;7.788;2022-08-27T09:45:07;11.53;;;7.90;;
2001;SDS011;1003;48.002;7.788;2022-08-27T09:47:41;14.10;;;8.40;;
2001;SDS011;1003;48.002;7.788;2022-08-27T09:50:11;11.60;;;8.20;;
2001;SDS011;1003;48.002;7.788;2022-08-27T09:52:46;11.83;;;8.10;;
2001;SDS011;1003;48.002;7.788;2022-08-27T09:55:29;10.77;;;8.30;;
2001;SDS011;1003;48.002;7.788;2022-08-27T09:58:15;9.73;;;7.43;;
2001;SDS011;1003;48.002;7.788;2022-08-27T10:00:46;10.17;;;8.20;;
2001;SDS011;1003;48.002;7.788;2022-08-27T10:03:23;12.63;;;8.80;;
2001;SDS011;1003;48.002;7.788;2022-08-27T10:05:51;8.83;;;7.37;;
2001;SDS011;1003;48.002;7.788;2022-08-27T10:08:21;11.20;;;8.70;;
2001;SDS011;1003;48.002;7.788;2022-08-27T10:10:55;11.37;;;8.20;;
2001;SDS011;1003;48.002;7.788;2022-08-27T10:13:27;9.90;;;8.30;;
2001;SDS011;1003;48.002;7.788;2022-08-27T10:16:08;9.77;;;7.43;;
2001;SDS011;1003;48.002;7.788;2022-08-27T10:19:14;7.57;;;6.77;;
2001;SDS011;1003;48.002;7.788;2022-08-27T10:21:58;9.60;;;7.13;;
2001;SDS011;1003;48.002;7.788;2022-08-27T10:24:43;8.33;;;7.30;;
2001;SDS011;1003;48.002;7.788;2022-08-27T10:27:29;8.60;;;7.00;;
2001;SDS011;1003;48.002;7.788;2022-08-27T10:30:10;11.13;;;8.63;;
2001;SDS011;1003;48.002;7.788;2022-08-27T10:32:47;9.13;;;8.20;;
2001;SDS011;1003;48.002;7.788;2022-08-27T10:35:25;8.97;;;7.33;;
2001;SDS011;1003;48.002;7.788;2022-08-27T10:38:05;10.00;;;7.87;;
2001;SDS011;1003;48.002;7.788;2022-08-27T10:40:45;9.93;;;7.77;;
2001;SDS011;1003;48.002;7.788;2022-08-27T10:43:24;12.00;;;8.30;;
2001;SDS011;1003;48.002;7.788;2022-08-27T10:46:16;8.00;;;6.70;;
2001;SDS011;1003;48.002;7.788;2022-08-27T10:49:14;8.50;;;7.40;;
2001;SDS011;1003;48.002;7.788;2022-08-27T10:51:56;8.83;;;6.70;;
2001;SDS011;1003;48.002;7.788;2022-08-27T10:54:35;7.43;;;6.40;;
2001;SDS011;1003;48.002;7.788;2022-08-27T10:57:13;9.23;;;7.63;;
2001;SDS011;1003;48.002;7.788;2022-08-27T10:59:49;7.93;;;7.10;;
2001;SDS011;1003;48.002;7.788;2022-08-27T11:02:27;8.33;;;6.50;;
2001;SDS011;1003;48.002;7.788;2022-08-27T11:05:02;7.50;;;6.70;;
2001;SDS011;1003;48.002;7.788;2022-08-27T11:07:41;9.57;;;8.10;;
2001;SDS011;1003;48.002;7.788;2022-08-27T11:10:15;11.53;;;8.80;;
2001;SDS011;1003;48.002;7.788;2022-08-27T11:12:52;11.27;;;8.93;;
2001;SDS011;1003;48.002;7.788;2022-08-27T11:15:24;11.87;;;9.30;;
2001;SDS011;1003;48.002;7.788;2022-08-27T11:17:58;11.20;;;8.73;;
2001;SDS011;1003;48.002;7.788;2022-08-27T11:20:33;13.67;;;8.90;;
2001;SDS011;1003;48.002;7.788;2022-08-27T11:23:13;10.87;;;8.77;;
2001;SDS011;1003;48.002;7.788;2022-08-27T11:25:47;12.63;;;9.13;;
2001;SDS011;1003;48.002;7.788;2022-08-27T11:28:23;9.90;;;8.23;;
2001;SDS011;1003;48.002;7.788;2022-08-27T11:31:02;10.70;;;9.23;;
2001;SDS011;1003;48.002;7.788;2022-08-27T11:33:42;11.63;;;9.87;;
2001;SDS011;1003;48.002;7.788;2022-08-27T11:36:23;20.20;;;9.40;;
2001;SDS011;1003;48.002;7.788;2022-08-27T11:39:27;10.27;;;8.90;;
2001;SDS011;1003;48.002;7.788;2022-08-27T11:42:15;12.90;;;9.13;;
2001;SDS011;1003;48.002;7.788;2022-08-27T11:45:04;11.90;;;9.07;;
2001;SDS011;1003;48.002;7.788;2022-08-27T11:47:35;11.43;;;8.57;;
2001;SDS011;1003;48.002;7.788;2022-08-27T11:50:04;12.93;;;9.20;;
2001;SDS011;1003;48.002;7.788;2022-08-27T11:52:52;10.70;;;8.10;;
2001;SDS011;1003;48.002;7.788;2022-08-27T11:55:25;12.20;;;8.73;;
2001;SDS011;1003;48.002;7.788;2022-08-27T11:58:07;11.87;;;9.00;;
2001;SDS011;1003;48.002;7.788;2022-08-27T12:00:51;10.77;;;8.60;;
2001;SDS011;1003;48.002;7.788;2022-08-27T12:03:24;10.03;;;8.43;;
2001;SDS011;1003;48.002;7.788;2022-08-27T12:06:15;13.97;;;8.50;;
2001;SDS011;1003;48.002;7.788;2022-08-27T12:08:50;10.63;;;8.33;;
2001;SDS011;1003;48.002;7.788;2022-08-27T12:11:22;9.80;;;8.30;;
2001;SDS011;1003;48.002;7.788;2022-08-27T12:14:14;10.80;;;8.57;;
2001;SDS011;1003;48.002;7.788;2022-08-27T12:17:02;11.33;;;8.90;;
2001;SDS011;1003;48.002;7.788;2022-08-27T12:19:44;10.90;;;9.10;;
2001;SDS011;1003;48.002;7.788;2022-08-27T12:22:38;13.47;;;10.00;;
2001;SDS011;1003;48.002;7.788;2022-08-27T12:25:39;14.50;;;11.53;;
2001;SDS011;1003;48.002;7.788;2022-08-27T12:28:07;10.93;;;9.63;;
2001;SDS011;1003;48.002;7.788;2022-08-27T12:30:35;11.60;;;9.80;;
2001;SDS011;1003;48.002;7.788;2022-08-27T12:33:13;13.30;;;9.97;;
2001;SDS011;1003;48.002;7.788;2022-08-27T12:35:52;11.97;;;9.43;;
2001;SDS011;1003;48.002;7.788;2022-08-27T12:38:31;13.97;;;10.30;;
2001;SDS011;1003;48.002;7.788;2022-08-27T12:41:11;12.37;;;9.90;;
2001;SDS011;1003;48.002;7.788;2022-08-27T12:44:00;12.77;;;9.93;;
2001;SDS011;1003;48.002;7.788;2022-08-27T12:46:30;16.37;;;11.17;;
2001;SDS011;1003;48.002;7.788;2022-08-27T12:48:59;15.40;;;11.20;;
2001;SDS011;1003;48.002;7.788;2022-08-27T12:51:29;13.07;;;11.30;;
2001;SDS011;1003;48.002;7.788;2022-08-27T12:54:04;12.13;;;10.23;;
2001;SDS011;1003;48.002;7.788;2022-08-27T12:56:52;15.53;;;12.63;;
2001;SDS011;1003;48.002;7.788;2022-08-27T12:59:45;16.30;;;12.23;;
2001;SDS011;1003;48.002;7.788;2022-08-27T13:02:32;14.70;;;11.50;;
2001;SDS011;1003;48.002;7.788;2022-08-27T13:05:38;15.67;;;11.50;;
2001;SDS011;1003;48.002;7.788;2022-08-27T13:08:16;16.07;;;12.53;;
2001;SDS011;1003;48.002;7.788;2022-08-27T13:10:46;16.13;;;11.73;;
2001;SDS011;1003;48.002;7.788;2022-08-27T13:13:16;16.47;;;12.67;;
2001;SDS011;1003;48.002;7.788;2022-08-27T13:15:48;16.17;;;11.80;;
2001;SDS011;1003;48.002;7.788;2022-08-27T13:18:19;15.20;;;12.47;;
2001;SDS011;1003;48.002;7.788;2022-08-27T13:20:50;15.07;;;11.57;;
2001;SDS011;1003;48.002;7.788;2022-08-27T13:23:28;16.10;;;11.67;;
2001;SDS011;1003;48.002;7.788;2022-08-27T13:26:01;12.82;;;11.20;;
2001;SDS011;1003;48.002;7.788;2022-08-27T13:28:32;15.53;;;11.07;;
2001;SDS011;1003;48.002;7.788;2022-08-27T13:31:01;15.17;;;11.53;;
2001;SDS011;1003;48.002;7.788;2022-08-27T13:33:33;16.80;;;11.90;;
2001;SDS011;1003;48.002;7.788;2022-08-27T13:36:04;13.87;;;11.33;;
2001;SDS011;1003;48.002;7.788;2022-08-27T13:38:35;13.43;;;11.90;;
2001;SDS011;1003;48.002;7.788;2022-08-27T13:41:06;15.00;;;11.10;;
2001;SDS011;1003;48.002;7.788;2022-08-27T13:43:37;13.97;;;10.60;;
2001;SDS011;1003;48.002;7.788;2022-08-27T13:46:09;13.83;;;10.60;;
2001;SDS011;1003;48.002;7.788;2022-08-27T13:48:43;13.77;;;10.90;;
2001;SDS011;1003;48.002;7.788;2022-08-27T13:51:17;12.53;;;10.80;;
2001;SDS011;1003;48.002;7.788;2022-08-27T13:53:52;13.63;;;10.03;;
2001;SDS011;1003;48.002;7.788;2022-08-27T13:56:38;12.33;;;10.40;;
2001;SDS011;1003;48.002;7.788;2022-08-27T13:59:22;13.77;;;10.43;;
2001;SDS011;1003;48.002;7.788;2022-08-27T14:01:55;12.40;;;9.97;;
2001;SDS011;1003;48.002;7.788;2022-08-27T14:04:32;13.30;;;10.67;;
2001;SDS011;1003;48.002;7.788;2022-08-27T14:07:07;11.47;;;9.33;;
2001;SDS011;1003;48.002;7.788;2022-08-27T14:09:42;13.23;;;9.20;;
2001;SDS011;1003;48.002;7.788;2022-08-27T14:12:17;10.57;;;9.20;;
2001;SDS011;1003;48.002;7.788;2022-08-27T14:14:54;12.67;;;9.77;;
2001;SDS011;1003;48.002;7.788;2022-08-27T14:17:25;14.37;;;9.97;;
2001;SDS011;1003;48.002;7.788;2022-08-27T14:20:00;14.37;;;10.43;;
2001;SDS011;1003;48.002;7.788;2022-08-27T14:22:31;12.57;;;9.70;;
2001;SDS011;1003;48.002;7.788;2022-08-27T14:24:59;11.50;;;8.80;;
2001;SDS011;1003;48.002;7.788;2022-08-27T14:27:27;11.33;;;8.97;;
2001;SDS011;1003;48.002;7.788;2022-08-27T14:29:56;9.47;;;6.97;;
2001;SDS011;1003;48.002;7.788;2022-08-27T14:32:23;6.80;;;5.80;;
2001;SDS011;1003;48.002;7.788;2022-08-27T14:34:50;6.30;;;4.80;;
2001;SDS011;1003;48.002;7.788;2022-08-27T14:37:18;6.47;;;5.07;;
2001;SDS011;1003;48.002;7.788;2022-08-27T14:39:46;8.10;;;6.50;;
2001;SDS011;1003;48.002;7.788;2022-08-27T14:42:14;9.30;;;6.90;;
2001;SDS011;1003;48.002;7.788;2022-08-27T14:44:42;10.30;;;7.97;;
2001;SDS011;1003;48.002;7.788;2022-08-27T14:47:10;9.00;;;7.60;;
2001;SDS011;1003;48.002;7.788;2022-08-27T14:49:41;9.93;;;8.20;;
2001;SDS011;1003;48.002;7.788;2022-08-27T14:52:11;12.07;;;9.13;;
2001;SDS011;1003;48.002;7.788;2022-08-27T14:54:40;10.77;;;8.70;;
2001;SDS011;1003;48.002;7.788;2022-08-27T14:57:09;11.37;;;8.50;;
2001;SDS011;1003;48.002;7.788;2022-08-27T14:59:37;11.87;;;9.50;;
2001;SDS011;1003;48.002;7.788;2022-08-27T15:02:05;12.03;;;8.40;;
2001;SDS011;1003;48.002;7.788;2022-08-27T15:04:37;13.87;;;9.53;;
2001;SDS011;1003;48.002;7.788;2022-08-27T15:07:04;16.43;;;9.97;;
2001;SDS011;1003;48.002;7.788;2022-08-27T15:09:32;16.40;;;10.73;;
2001;SDS011;1003;48.002;7.788;2022-08-27T15:11:59;14.57;;;9.77;;
2001;SDS011;1003;48.002;7.788;2022-08-27T15:14:28;13.03;;;8.30;;
2001;SDS011;1003;48.002;7.788;2022-08-27T15:16:58;10.00;;;6.50;;
2001;SDS011;1003;48.002;7.788;2022-08-27T15:19:26;12.93;;;7.53;;
2001;SDS011;1003;48.002;7.788;2022-08-27T15:21:55;9.27;;;6.33;;
2001;SDS011;1003;48.002;7.788;2022-08-27T15:24:36;7.73;;;5.73;;
2001;SDS011;1003;48.002;7.788;2022-08-27T15:27:11;7.80;;;5.13;;